Kalaheo, HI

7:17 AM HST on March 02, 2015 (GMT -1000)
Barking Sands PMRF | Change Station
CLOSE
Current Station
Airport
Location: Barking Sands,
Elevation: 13 ft
Nearby Weather Stations
Active Advisory: High Surf Advisory

Elev 13 ft 22.02 °N, 159.79 °W | Updated 21 minutes ago

Clear
Clear
65 °F
Feels Like 65 °F
N
6
Wind Variable Wind from NE

Today
High -- | Low -- °F
--% Chance of Precip.
Yesterday
High -- | Low -- °F
Precip. -- in
6:58 AM 6:42 PM
Waxing Gibbous, 92% visible
Pressure 30.03 in
Visibility 10.0 miles
Clouds Clear
Dew Point 60 °F
Humidity 84%
Rainfall 0.00 in
Snow Depth Not available.
UV 0 out of 12
Pollen Not available.
Air Quality Not available.
Flu Activity Not available.
METAR PHBK 021656Z AUTO 05005KT 10SM CLR 18/16 A3002 RMK AO2 SLP169 T01830156

More Conditions Fewer Conditions

Pressure 30.03 in
Visibility 10.0 miles
Clouds Clear
Dew Point 60 °F
Humidity 84%
Rainfall 0.00 in
Snow Depth Not available.
UV 0 out of 12
Pollen Not available.
Air Quality Not available.
Flu Activity Not available.
METAR PHBK 021656Z AUTO 05005KT 10SM CLR 18/16 A3002 RMK AO2 SLP169 T01830156

More Conditions Fewer Conditions

10-Day Weather Forecast

Almanac

Astronomy

Mar. 02, 2015 Rise Set
Actual Time
Civil Twilight
Nautical Twilight
Astronomical Twilight
Moon
Length of Visible Light
Length of Day
Tomorrow will be .
, % of the Moon is Illuminated

Today's Extremes

State Highs State Lows

Community

WunderPhotos

Upload Photos

1,801,855 photos uploaded!

WunderBlogs® & News

Nearby

Air Quality

  Air Quality AQ Index Pollutant
Not available.

Snow Depth

Station Depth Elevation

Earthquake Activity

City Distance Mag. Time & Date
Minimum magnitude displayed is 2.5.

Coastal Water Temperatures

Place Temperature

Nearby Weather Stations

High Surf Advisory
Statement as of 3:31 AM HST on March 02, 2015

... High surf advisory remains in effect until midnight HST
tonight...

A high surf advisory remains in effect until midnight HST
tonight.

* Surf... along north facing shores... 15 to 20 feet this morning
decreasing to 10 to 15 feet this afternoon and evening. Along
west facing shores... 8 to 12 feet this morning... decreasing
during the afternoon and evening.

* Timing... through midnight... possibly earlier along west facing
shores.

* Impacts... moderate... expect strong breaking waves... shore
break... and strong currents making swimming dangerous.

Precautionary/preparedness actions...

These conditions mean that only highly experienced persons should
enter the water along the shorelines affected by this high surf.
Always heed lifeguard advice and know your limits. When in
doubt... do not go out.


Wroe